Waterfall, Pennsylvania
Current Conditions -  °F | °C
As of 6:53 PM on Friday 31 Oct 2014 (Local Time) from KAOO Reporting Station
Overcast Overcast  
Wind Chill: 45°   Ceiling: 5000
Heat Index: 45°   Visibility: 10mi
Dew Point: 36°   Wind: 3mph
Humidity: 71%   Direction: 80°E
Pressure: 29.86"   Gusts: NA
Location:  40.13°N, 78.06°W
Report Text: KAOO 312253Z AUTO 08003KT 10SM OVC050 07/02 A2986 RMK AO2 SLP118 T00720022
Loading
Personal Weather Stations






























Interactive Weather Map
Tropical Storm Tracking
New forecast layout! Learn more

10-Day Weather Forecast

Advertisements
Track Severe Weather on mobile